createdAt,value
2022-11-07T00:00:20.846Z,8.79
2022-11-07T00:02:47.280Z,8.86
2022-11-07T00:05:13.848Z,9.00
2022-11-07T00:07:40.254Z,8.98
2022-11-07T00:10:07.015Z,8.97
2022-11-07T00:12:36.450Z,8.91
2022-11-07T00:15:04.993Z,8.86
2022-11-07T00:17:31.570Z,8.93
2022-11-07T00:19:58.225Z,8.97
2022-11-07T00:22:24.638Z,9.07
2022-11-07T00:24:51.066Z,8.98
2022-11-07T00:27:17.692Z,8.99
2022-11-07T00:29:44.149Z,8.92
2022-11-07T00:32:10.565Z,8.97
2022-11-07T00:34:36.955Z,8.97
2022-11-07T00:37:03.424Z,9.02
2022-11-07T00:39:29.914Z,9.07
2022-11-07T00:41:56.372Z,9.08
2022-11-07T00:44:22.850Z,9.09
2022-11-07T00:46:49.375Z,9.12
2022-11-07T00:49:15.769Z,8.96
2022-11-07T00:51:42.583Z,9.07
2022-11-07T00:54:09.022Z,9.06
2022-11-07T00:56:35.522Z,9.02
2022-11-07T00:59:01.929Z,9.13
2022-11-07T01:01:31.996Z,9.08
2022-11-07T01:04:17.643Z,9.02
2022-11-07T01:06:46.119Z,9.00
2022-11-07T01:09:16.653Z,8.98
2022-11-07T01:11:43.947Z,9.06
2022-11-07T01:14:11.778Z,9.09
2022-11-07T01:16:38.884Z,9.18
2022-11-07T01:19:06.247Z,9.17
2022-11-07T01:21:32.695Z,9.24
2022-11-07T01:24:00.226Z,9.22
2022-11-07T01:26:27.025Z,9.08
2022-11-07T01:28:53.444Z,9.18
2022-11-07T01:31:20.104Z,9.13
2022-11-07T01:33:46.920Z,9.20
2022-11-07T01:36:16.369Z,9.13
2022-11-07T01:38:46.010Z,9.20
2022-11-07T01:41:21.145Z,9.24
2022-11-07T01:44:08.976Z,9.01
2022-11-07T01:46:41.106Z,9.13
2022-11-07T01:49:32.348Z,9.09
2022-11-07T01:52:04.199Z,8.95
2022-11-07T01:54:35.587Z,8.91
2022-11-07T01:57:09.287Z,9.00
2022-11-07T01:59:37.543Z,9.10
2022-11-07T02:02:04.546Z,8.93
2022-11-07T02:04:31.854Z,8.95
2022-11-07T02:07:34.062Z,8.91
2022-11-07T02:10:01.551Z,8.85
2022-11-07T02:12:29.028Z,8.95
2022-11-07T02:14:56.583Z,8.85
2022-11-07T02:17:23.339Z,8.82
2022-11-07T02:19:55.939Z,8.72
2022-11-07T02:22:28.368Z,8.71
2022-11-07T02:25:00.096Z,8.72
2022-11-07T02:27:31.222Z,8.80
2022-11-07T02:30:02.682Z,8.69
2022-11-07T02:32:29.329Z,8.65
2022-11-07T02:35:00.176Z,8.59
2022-11-07T02:37:37.405Z,8.66
2022-11-07T02:40:08.052Z,8.65
2022-11-07T02:42:44.151Z,8.54
2022-11-07T02:45:17.414Z,8.53
2022-11-07T02:47:43.839Z,8.62
2022-11-07T02:50:12.641Z,8.65
2022-11-07T02:52:39.060Z,8.64
2022-11-07T02:55:06.774Z,8.57
2022-11-07T02:57:33.490Z,8.68
2022-11-07T02:59:59.944Z,8.53
2022-11-07T03:02:26.574Z,8.57
2022-11-07T03:04:53.289Z,8.53
2022-11-07T03:07:19.803Z,8.65
2022-11-07T03:09:46.257Z,8.52
2022-11-07T03:12:12.708Z,8.40
2022-11-07T03:14:39.235Z,8.55
2022-11-07T03:17:05.740Z,8.64
2022-11-07T03:19:32.174Z,8.52
2022-11-07T03:21:58.565Z,8.44
2022-11-07T03:24:24.993Z,8.49
2022-11-07T03:26:51.489Z,8.42
2022-11-07T03:29:17.903Z,8.45
2022-11-07T03:31:44.294Z,8.50
2022-11-07T03:34:10.785Z,8.44
2022-11-07T03:36:37.195Z,8.43
2022-11-07T03:39:03.718Z,8.46
2022-11-07T03:41:30.111Z,8.63
2022-11-07T03:43:56.538Z,8.53
2022-11-07T03:46:22.956Z,8.45
2022-11-07T03:48:49.374Z,8.59
2022-11-07T03:51:15.773Z,8.67
2022-11-07T03:53:42.216Z,8.60
2022-11-07T03:56:10.695Z,8.71
2022-11-07T03:58:37.744Z,8.65
2022-11-07T04:01:05.096Z,8.59
2022-11-07T04:03:32.491Z,8.61
2022-11-07T04:05:59.355Z,8.55
2022-11-07T04:08:25.850Z,8.58
2022-11-07T04:10:52.324Z,8.55
2022-11-07T04:13:37.376Z,8.56
2022-11-07T04:16:22.732Z,8.49
2022-11-07T04:18:49.213Z,8.57
2022-11-07T04:21:15.603Z,8.48
2022-11-07T04:23:42.024Z,8.35
2022-11-07T04:26:26.756Z,8.33
2022-11-07T04:28:53.179Z,8.25
2022-11-07T04:31:19.615Z,8.27
2022-11-07T04:33:46.059Z,8.21
2022-11-07T04:36:12.518Z,8.14
2022-11-07T04:38:38.973Z,8.16
2022-11-07T04:41:05.847Z,8.12
2022-11-07T04:43:32.409Z,8.06
2022-11-07T04:45:58.868Z,8.09
2022-11-07T04:48:25.262Z,8.09
2022-11-07T04:50:51.768Z,8.00
2022-11-07T04:53:18.887Z,8.05
2022-11-07T04:55:45.306Z,8.05
2022-11-07T04:58:11.700Z,8.12
2022-11-07T05:00:38.192Z,8.11
2022-11-07T05:03:04.703Z,8.07
2022-11-07T05:05:31.564Z,8.04
2022-11-07T05:07:57.955Z,8.06
2022-11-07T05:10:29.094Z,8.05
2022-11-07T05:12:56.461Z,7.88
2022-11-07T05:15:23.591Z,7.95
2022-11-07T05:17:50.052Z,7.96
2022-11-07T05:20:36.879Z,7.96
2022-11-07T05:23:18.477Z,7.86
2022-11-07T05:25:48.188Z,7.89
2022-11-07T05:28:35.175Z,7.95
2022-11-07T05:31:06.246Z,7.96
2022-11-07T05:33:32.862Z,7.89
2022-11-07T05:36:18.794Z,7.85
2022-11-07T05:38:47.737Z,7.94
2022-11-07T05:41:15.367Z,7.90
2022-11-07T05:43:42.087Z,7.91
2022-11-07T05:46:09.159Z,7.96
2022-11-07T05:48:36.547Z,7.80
2022-11-07T05:51:04.445Z,7.74
2022-11-07T05:53:31.280Z,7.81
2022-11-07T05:55:57.871Z,7.84
2022-11-07T05:58:24.323Z,7.91
2022-11-07T06:00:50.743Z,7.92
2022-11-07T06:03:20.181Z,7.85
2022-11-07T06:05:47.595Z,7.84
2022-11-07T06:08:14.568Z,7.72
2022-11-07T06:10:42.428Z,7.70
2022-11-07T06:13:13.136Z,7.69
2022-11-07T06:15:40.890Z,7.74
2022-11-07T06:18:12.439Z,7.73
2022-11-07T06:20:39.218Z,7.72
2022-11-07T06:23:06.637Z,7.85
2022-11-07T06:25:33.640Z,7.90
2022-11-07T06:28:01.834Z,7.84
2022-11-07T06:30:28.920Z,7.90
2022-11-07T06:32:55.420Z,7.91
2022-11-07T06:35:22.428Z,8.01
2022-11-07T06:37:48.867Z,8.02
2022-11-07T06:40:15.327Z,7.89
2022-11-07T06:42:41.732Z,7.86
2022-11-07T06:45:08.686Z,7.91
2022-11-07T06:47:35.087Z,7.99
2022-11-07T06:50:01.514Z,8.18
2022-11-07T06:52:28.424Z,8.14
2022-11-07T06:54:54.941Z,8.20
2022-11-07T06:57:21.413Z,8.24
2022-11-07T06:59:51.773Z,8.27
2022-11-07T07:02:43.819Z,8.26
2022-11-07T07:05:05.554Z,8.37
2022-11-07T07:07:31.992Z,8.35
2022-11-07T07:09:58.378Z,8.32
2022-11-07T07:12:26.418Z,8.43
2022-11-07T07:14:52.814Z,8.35
2022-11-07T07:17:19.287Z,8.47
2022-11-07T07:19:45.728Z,8.51
2022-11-07T07:22:14.943Z,8.41
2022-11-07T07:24:41.322Z,8.51
2022-11-07T07:27:07.716Z,8.62
2022-11-07T07:29:34.135Z,8.68
2022-11-07T07:32:00.545Z,8.75
2022-11-07T07:34:26.958Z,8.81
2022-11-07T07:36:54.198Z,8.93
2022-11-07T07:39:20.599Z,9.00
2022-11-07T07:41:49.280Z,9.13
2022-11-07T07:44:15.662Z,9.09
2022-11-07T07:46:42.143Z,9.21
2022-11-07T07:49:09.092Z,9.23
2022-11-07T07:51:35.942Z,9.34
2022-11-07T07:54:02.340Z,9.27
2022-11-07T07:56:28.798Z,9.34
2022-11-07T07:58:55.829Z,9.52
2022-11-07T08:01:22.373Z,9.92
2022-11-07T08:04:01.167Z,10.36
2022-11-07T08:06:28.064Z,10.65
2022-11-07T08:08:54.496Z,11.56
2022-11-07T08:11:20.917Z,11.92
2022-11-07T08:13:47.307Z,12.51
2022-11-07T08:16:14.747Z,12.70
2022-11-07T08:18:41.153Z,12.78
2022-11-07T08:21:08.595Z,13.17
2022-11-07T08:23:35.840Z,13.69
2022-11-07T08:26:04.751Z,14.09
2022-11-07T08:28:33.839Z,14.23
2022-11-07T08:31:03.176Z,14.43
2022-11-07T08:33:30.810Z,14.80
2022-11-07T08:36:00.480Z,14.98
2022-11-07T08:38:28.519Z,15.88
2022-11-07T08:40:56.101Z,15.68
2022-11-07T08:43:22.578Z,15.74
2022-11-07T08:45:50.422Z,16.31
2022-11-07T08:48:17.457Z,16.59
2022-11-07T08:50:44.203Z,16.96
2022-11-07T08:53:11.704Z,17.01
2022-11-07T08:55:38.245Z,16.99
2022-11-07T08:58:07.240Z,16.60
2022-11-07T09:00:35.627Z,16.72
2022-11-07T09:05:53.225Z,18.19
2022-11-07T09:08:19.691Z,18.33
2022-11-07T09:10:46.166Z,18.44
2022-11-07T09:13:15.160Z,18.41
2022-11-07T09:15:46.162Z,18.55
2022-11-07T09:18:15.943Z,19.20
2022-11-07T09:20:42.363Z,19.22
2022-11-07T09:23:09.173Z,18.98
2022-11-07T09:25:35.580Z,19.71
2022-11-07T09:28:03.248Z,19.76
2022-11-07T09:30:29.671Z,19.88
2022-11-07T09:32:56.810Z,20.09
2022-11-07T09:35:23.320Z,20.40
2022-11-07T09:37:51.055Z,20.22
2022-11-07T09:40:51.216Z,19.18
2022-11-07T09:43:55.190Z,19.33
2022-11-07T09:46:28.287Z,19.35
2022-11-07T09:49:01.303Z,19.73
2022-11-07T09:51:40.743Z,19.87
2022-11-07T09:54:29.097Z,20.25
2022-11-07T09:56:58.535Z,20.13
2022-11-07T09:59:30.336Z,20.04
2022-11-07T10:01:56.808Z,19.92
2022-11-07T10:04:25.716Z,20.13
2022-11-07T10:07:04.043Z,21.10
2022-11-07T10:09:47.984Z,21.68
2022-11-07T10:12:17.095Z,21.68
2022-11-07T10:15:08.718Z,21.58
2022-11-07T10:17:49.440Z,21.55
2022-11-07T10:20:41.112Z,22.24
2022-11-07T10:23:43.045Z,22.65
2022-11-07T10:26:10.467Z,21.50
2022-11-07T10:28:52.933Z,21.60
2022-11-07T10:31:19.798Z,21.80
2022-11-07T10:33:56.809Z,21.47
2022-11-07T10:36:30.779Z,21.80
2022-11-07T10:38:58.015Z,22.38
2022-11-07T10:41:27.418Z,22.79
2022-11-07T10:43:59.108Z,22.50
2022-11-07T10:46:38.477Z,22.25
2022-11-07T10:49:36.239Z,20.90
2022-11-07T10:52:19.448Z,20.42
2022-11-07T10:54:46.976Z,20.75
2022-11-07T10:57:22.236Z,20.37
2022-11-07T10:59:51.756Z,20.14
2022-11-07T11:02:43.921Z,20.54
2022-11-07T11:05:40.558Z,20.51
2022-11-07T11:08:19.357Z,19.81
2022-11-07T11:10:47.282Z,20.22
2022-11-07T11:13:33.167Z,20.50
2022-11-07T11:16:21.188Z,20.85
2022-11-07T11:18:53.233Z,21.88
2022-11-07T11:21:20.279Z,21.16
2022-11-07T11:23:47.734Z,21.57
2022-11-07T11:26:30.591Z,22.01
2022-11-07T11:29:02.297Z,21.51
2022-11-07T11:31:35.029Z,21.34
2022-11-07T11:34:36.569Z,21.74
2022-11-07T11:37:15.942Z,21.50
2022-11-07T11:40:03.916Z,21.03
2022-11-07T11:42:39.453Z,21.33
2022-11-07T11:45:16.717Z,21.82
2022-11-07T11:47:53.833Z,21.41
2022-11-07T11:50:31.754Z,22.32
2022-11-07T11:52:59.457Z,22.86
2022-11-07T11:55:34.231Z,22.91
2022-11-07T11:58:34.931Z,23.49
2022-11-07T12:01:18.346Z,24.04
2022-11-07T12:04:22.744Z,23.59
2022-11-07T12:06:57.600Z,23.90
2022-11-07T12:09:23.912Z,23.71
2022-11-07T12:12:09.705Z,23.92
2022-11-07T12:14:57.686Z,24.07
2022-11-07T12:17:38.006Z,24.58
2022-11-07T12:20:19.999Z,23.93
2022-11-07T12:22:53.914Z,23.60
2022-11-07T12:25:27.655Z,23.37
2022-11-07T12:28:06.409Z,23.00
2022-11-07T12:30:35.765Z,23.54
2022-11-07T12:33:28.068Z,22.76
2022-11-07T12:35:57.172Z,22.84
2022-11-07T12:38:38.682Z,22.39
2022-11-07T12:41:34.619Z,22.85
2022-11-07T12:44:04.813Z,23.11
2022-11-07T12:46:52.923Z,23.14
2022-11-07T12:49:40.856Z,22.77
2022-11-07T12:52:42.807Z,22.56
2022-11-07T12:55:42.015Z,22.68
2022-11-07T12:58:20.325Z,22.39
2022-11-07T13:00:47.850Z,22.25
2022-11-07T13:03:32.944Z,22.29
2022-11-07T13:06:15.344Z,22.20
2022-11-07T13:08:56.327Z,21.71
2022-11-07T13:11:41.071Z,21.55
2022-11-07T13:14:26.643Z,21.11
2022-11-07T13:17:08.386Z,20.74
2022-11-07T13:19:37.879Z,20.86
2022-11-07T13:22:07.575Z,20.84
2022-11-07T13:24:38.726Z,20.64
2022-11-07T13:27:20.702Z,20.47
2022-11-07T13:29:47.131Z,20.40
2022-11-07T13:32:15.517Z,20.28
2022-11-07T13:34:47.960Z,20.05
2022-11-07T13:37:22.470Z,19.81
2022-11-07T13:39:51.460Z,19.52
2022-11-07T13:42:19.229Z,19.60
2022-11-07T13:44:53.326Z,19.65
2022-11-07T13:47:26.243Z,19.42
2022-11-07T13:49:57.988Z,19.22
2022-11-07T13:52:52.410Z,19.32
2022-11-07T13:55:23.502Z,19.23
2022-11-07T13:57:57.949Z,19.09
2022-11-07T14:00:24.916Z,19.07
2022-11-07T14:02:57.720Z,18.95
2022-11-07T14:05:27.250Z,18.85
2022-11-07T14:08:03.127Z,18.66
2022-11-07T14:10:33.848Z,18.51
2022-11-07T14:13:22.203Z,18.48
2022-11-07T14:15:53.916Z,18.50
2022-11-07T14:18:23.077Z,18.52
2022-11-07T14:20:55.350Z,18.45
2022-11-07T14:23:26.160Z,18.32
2022-11-07T14:26:04.700Z,18.29
2022-11-07T14:28:36.751Z,18.31
2022-11-07T14:31:06.766Z,18.23
2022-11-07T14:33:33.920Z,18.21
2022-11-07T14:36:05.762Z,18.14
2022-11-07T14:38:32.328Z,18.08
2022-11-07T14:41:01.844Z,18.03
2022-11-07T14:43:29.347Z,17.84
2022-11-07T14:46:17.388Z,17.79
2022-11-07T14:48:44.980Z,17.77
2022-11-07T14:51:17.723Z,17.70
2022-11-07T14:54:05.912Z,17.65
2022-11-07T14:56:35.739Z,17.74
2022-11-07T14:59:02.472Z,17.63
2022-11-07T15:01:32.454Z,17.56
2022-11-07T15:04:36.396Z,17.44
2022-11-07T15:07:18.004Z,17.42
2022-11-07T15:09:44.445Z,17.31
2022-11-07T15:12:21.902Z,17.27
2022-11-07T15:15:06.770Z,17.11
2022-11-07T15:17:40.224Z,17.03
2022-11-07T15:20:07.347Z,16.85
2022-11-07T15:22:39.020Z,16.88
2022-11-07T15:25:25.089Z,16.78
2022-11-07T15:27:51.550Z,16.59
2022-11-07T15:30:34.431Z,16.29
2022-11-07T15:33:00.892Z,16.16
2022-11-07T15:35:43.427Z,16.07
2022-11-07T15:38:21.073Z,15.97
2022-11-07T15:40:48.627Z,15.85
2022-11-07T15:43:15.281Z,15.73
2022-11-07T15:45:42.653Z,15.63
2022-11-07T15:48:19.594Z,15.63
2022-11-07T15:50:47.773Z,15.59
2022-11-07T15:53:23.197Z,15.60
2022-11-07T15:55:55.045Z,15.41
2022-11-07T15:58:24.138Z,15.34
2022-11-07T16:00:51.960Z,15.31
2022-11-07T16:03:20.889Z,15.21
2022-11-07T16:05:49.917Z,15.06
2022-11-07T16:08:19.033Z,15.04
2022-11-07T16:10:51.164Z,15.23
2022-11-07T16:13:17.596Z,15.31
2022-11-07T16:15:48.504Z,15.32
2022-11-07T16:18:17.577Z,15.25
2022-11-07T16:20:45.001Z,15.32
2022-11-07T16:23:11.477Z,15.34
2022-11-07T16:25:40.826Z,15.09
2022-11-07T16:28:34.816Z,14.68
2022-11-07T16:31:02.204Z,14.42
2022-11-07T16:33:29.057Z,14.09
2022-11-07T16:35:59.852Z,13.96
2022-11-07T16:38:31.336Z,13.86
2022-11-07T16:41:00.502Z,13.65
2022-11-07T16:43:26.885Z,13.87
2022-11-07T16:45:55.961Z,13.73
2022-11-07T16:48:26.607Z,13.49
2022-11-07T16:50:54.281Z,13.35
2022-11-07T16:53:21.717Z,13.23
2022-11-07T16:55:53.606Z,13.13
2022-11-07T16:58:30.332Z,13.20
2022-11-07T17:00:59.288Z,13.06
2022-11-07T17:03:26.475Z,13.00
2022-11-07T17:05:58.692Z,12.95
2022-11-07T17:08:29.571Z,13.17
2022-11-07T17:10:55.992Z,13.21
2022-11-07T17:13:23.125Z,13.28
2022-11-07T17:15:50.065Z,13.32
2022-11-07T17:18:22.025Z,13.19
2022-11-07T17:20:51.312Z,13.21
2022-11-07T17:23:18.644Z,13.16
2022-11-07T17:25:50.560Z,13.06
2022-11-07T17:28:17.581Z,12.99
2022-11-07T17:30:44.527Z,12.91
2022-11-07T17:33:10.944Z,12.90
2022-11-07T17:35:37.968Z,12.75
2022-11-07T17:38:05.444Z,12.40
2022-11-07T17:40:33.642Z,12.32
2022-11-07T17:43:00.473Z,12.28
2022-11-07T17:45:27.364Z,12.24
2022-11-07T17:47:53.820Z,11.94
2022-11-07T17:50:22.295Z,11.95
2022-11-07T17:52:48.759Z,12.24
2022-11-07T17:55:15.323Z,12.08
2022-11-07T17:57:43.376Z,12.06
2022-11-07T18:00:30.091Z,11.84
2022-11-07T18:02:56.654Z,11.41
2022-11-07T18:05:26.503Z,11.67
2022-11-07T18:07:56.663Z,11.69
2022-11-07T18:10:23.828Z,11.86
2022-11-07T18:12:50.288Z,12.09
2022-11-07T18:15:16.703Z,12.24
2022-11-07T18:17:43.124Z,12.28
2022-11-07T18:20:10.342Z,12.27
2022-11-07T18:22:37.260Z,12.23
2022-11-07T18:25:08.289Z,12.18
2022-11-07T18:27:35.494Z,12.16
2022-11-07T18:30:03.023Z,12.06
2022-11-07T18:32:35.546Z,11.82
2022-11-07T18:35:04.287Z,11.54
2022-11-07T18:37:30.677Z,11.46
2022-11-07T18:39:57.087Z,11.36
2022-11-07T18:42:23.486Z,11.25
2022-11-07T18:44:49.889Z,11.16
2022-11-07T18:47:16.295Z,11.16
2022-11-07T18:49:42.720Z,11.12
2022-11-07T18:52:09.113Z,11.23
2022-11-07T18:54:35.581Z,11.24
2022-11-07T18:57:02.023Z,11.37
2022-11-07T18:59:28.467Z,11.40
2022-11-07T19:01:55.007Z,11.30
2022-11-07T19:04:21.469Z,11.26
2022-11-07T19:06:57.167Z,11.16
2022-11-07T19:09:29.914Z,11.13
2022-11-07T19:11:58.017Z,11.34
2022-11-07T19:14:25.889Z,11.15
2022-11-07T19:16:52.856Z,11.08
2022-11-07T19:19:19.320Z,11.10
2022-11-07T19:21:45.774Z,11.23
2022-11-07T19:24:13.130Z,11.28
2022-11-07T19:26:39.795Z,11.24
2022-11-07T19:29:09.241Z,11.14
2022-11-07T19:31:36.924Z,11.00
2022-11-07T19:34:03.685Z,10.92
2022-11-07T19:36:30.916Z,10.82
2022-11-07T19:38:57.595Z,10.76
2022-11-07T19:41:24.142Z,10.78
2022-11-07T19:43:50.548Z,10.71
2022-11-07T19:46:22.485Z,10.68
2022-11-07T19:48:49.912Z,10.64
2022-11-07T19:51:22.124Z,10.70
2022-11-07T19:53:58.024Z,10.66
2022-11-07T19:56:26.521Z,10.58
2022-11-07T19:58:54.367Z,10.63
2022-11-07T20:01:26.680Z,10.82
2022-11-07T20:03:54.295Z,10.69
2022-11-07T20:06:27.439Z,10.56
2022-11-07T20:08:53.884Z,10.57
2022-11-07T20:11:22.183Z,10.45
2022-11-07T20:13:48.679Z,10.50
2022-11-07T20:16:15.687Z,10.54
2022-11-07T20:18:42.425Z,10.55
2022-11-07T20:21:13.172Z,10.40
2022-11-07T20:23:40.990Z,10.28
2022-11-07T20:26:14.138Z,10.41
2022-11-07T20:28:40.648Z,10.27
2022-11-07T20:31:09.053Z,10.31
2022-11-07T20:33:35.558Z,10.41
2022-11-07T20:36:05.987Z,10.38
2022-11-07T20:38:33.462Z,10.37
2022-11-07T20:41:01.353Z,10.30
2022-11-07T20:43:27.867Z,10.31
2022-11-07T20:45:54.311Z,10.31
2022-11-07T20:48:21.269Z,10.33
2022-11-07T20:50:48.521Z,10.21
2022-11-07T20:53:16.074Z,10.17
2022-11-07T20:55:43.382Z,10.21
2022-11-07T20:58:10.753Z,10.28
2022-11-07T21:00:39.136Z,10.25
2022-11-07T21:03:06.061Z,10.22
2022-11-07T21:05:32.491Z,10.14
2022-11-07T21:07:58.944Z,10.13
2022-11-07T21:10:25.370Z,10.03
2022-11-07T21:12:51.802Z,10.06
2022-11-07T21:15:18.236Z,9.89
2022-11-07T21:17:44.678Z,9.93
2022-11-07T21:20:11.370Z,9.84
2022-11-07T21:22:37.942Z,9.82
2022-11-07T21:25:08.045Z,9.81
2022-11-07T21:27:37.661Z,9.81
2022-11-07T21:30:06.129Z,9.69
2022-11-07T21:32:33.268Z,9.69
2022-11-07T21:34:59.727Z,9.69
2022-11-07T21:37:26.181Z,9.81
2022-11-07T21:39:52.616Z,9.77
2022-11-07T21:42:19.089Z,9.76
2022-11-07T21:44:45.590Z,9.64
2022-11-07T21:47:12.041Z,9.70
2022-11-07T21:49:39.545Z,9.72
2022-11-07T21:52:05.964Z,9.67
2022-11-07T21:54:32.356Z,9.69
2022-11-07T21:57:00.236Z,9.77
2022-11-07T21:59:26.896Z,9.51
2022-11-07T22:01:55.077Z,9.64
2022-11-07T22:04:21.602Z,9.58
2022-11-07T22:06:48.030Z,9.51
2022-11-07T22:09:16.962Z,9.48
2022-11-07T22:11:44.120Z,9.40
2022-11-07T22:14:14.694Z,9.40
2022-11-07T22:16:41.809Z,9.44
2022-11-07T22:19:12.248Z,9.37
2022-11-07T22:21:40.043Z,9.38
2022-11-07T22:24:06.799Z,9.38
2022-11-07T22:26:33.212Z,9.39
2022-11-07T22:28:59.663Z,9.41
2022-11-07T22:31:30.198Z,9.42
2022-11-07T22:33:58.466Z,9.33
2022-11-07T22:36:25.033Z,9.39
2022-11-07T22:38:51.676Z,9.35
2022-11-07T22:41:23.631Z,9.26
2022-11-07T22:43:50.546Z,9.24
2022-11-07T22:46:19.464Z,9.27
2022-11-07T22:48:47.168Z,9.13
2022-11-07T22:51:16.431Z,9.22
2022-11-07T22:53:42.865Z,9.19
2022-11-07T22:56:15.720Z,9.18
2022-11-07T22:58:42.565Z,9.25
2022-11-07T23:01:18.320Z,9.27
2022-11-07T23:03:45.539Z,9.29
2022-11-07T23:06:12.169Z,9.10
2022-11-07T23:08:39.137Z,9.09
2022-11-07T23:11:43.482Z,9.03
2022-11-07T23:14:00.427Z,9.06
2022-11-07T23:16:32.679Z,8.97
2022-11-07T23:19:01.080Z,8.95
2022-11-07T23:21:27.848Z,8.92
2022-11-07T23:23:55.678Z,9.00
2022-11-07T23:26:22.724Z,8.85
2022-11-07T23:28:49.922Z,8.93
2022-11-07T23:31:18.068Z,9.01
2022-11-07T23:33:44.951Z,9.04
2022-11-07T23:36:16.531Z,9.19
2022-11-07T23:38:44.008Z,9.26
2022-11-07T23:41:14.602Z,9.24
2022-11-07T23:43:42.786Z,9.28
2022-11-07T23:46:32.023Z,9.29
2022-11-07T23:49:17.291Z,9.26
2022-11-07T23:51:45.208Z,9.32
2022-11-07T23:54:29.950Z,9.24
2022-11-07T23:56:56.428Z,9.21
2022-11-07T23:59:41.676Z,9.21
